Airfield :
LOGIN :

Register | Disclaimer

   EN    FR    IT 

 










Legend :    VFR   Marginal VFR   IFR   Intensive IFR   Very Intensive IFR
Visi :
Ceiling :
>= 8 km
>= 3000ft
5 to 8 km
1000 to 3000 ft
1500m to 5 km
500 to 1000 ft
800 to 1500m
200 to 500 ft
< 800m
< 200 ft
Symbols :   Thunderstorms  Fog  Heavy snow  Heavy precipitations  Wind > 20 kt
SIGMETs :     Misc.  Thunderstorms  Icing  Turbulence  Mountain Waves  Volcanic Ashes







- Airport Elevation : 1302 ft
- IATA code : GNB
- Download approach charts


LFLS - Grenoble / St. Geoirs

CURRENT METAR :
  • 240830Z AUTO 04006KT 010V070 9999 SCT025 BKN035 OVC041 24/16 Q1021 NOSIG

EXPIRED METARs :
  • 240800Z AUTO 02005KT 340V050 9999 SCT023 BKN034 OVC043 23/16 Q1021 NOSIG
  • 240730Z AUTO 36005KT 320V060 9999 BKN023 OVC033 23/16 Q1021 NOSIG
  • 240700Z AUTO 35005KT 300V050 9999 SCT024 BKN033 OVC045 23/16 Q1021 NOSIG
  • 240630Z AUTO VRB02KT 9999 FEW026 SCT033 OVC045 23/16 Q1021 NOSIG
  • 240600Z AUTO 34003KT 280V070 9999 SCT031 OVC043 22/16 Q1021 NOSIG
  • 240530Z AUTO 00000KT 9999 FEW034 OVC042 22/16 Q1021 NOSIG

TAF TAF LFLS
Valid from the 23 at 15:00 until the 24 at 15:00 UTC


231400Z 2315/2415 33007KT CAVOK
TEMPO 2316/2320 FEW080CB
PROB30
TEMPO 2316/2320 VRB15G30KT 4000 TSRA SCT070CB
BECMG 2320/2323 VRB02KT
BECMG 2407/2409 34005KT
ATIS : +33 4 76 65 55 89
No reported NOTAMs for that airfield.



MET'MAP, your aeronautical weather chart ! - Copyright ORBIFLY December 2007 - Disclaimer

ORBIFLY MET'MAP TEAM :

Programming & Development : Alexandra Zaïnal
Concept & Development : Baudouin d'Aumeries
Co-Development & Prog : Marc-Olivier Méhu
Technical & hardware support : Manuel Goepfert

Contact : metmap@orbifly.com




SOURCES & CREDITS :

   NOAA